Wilmot, New Hampshire
Current Conditions -  °F | °C
As of 11:53 AM on Friday 19 Dec 2014 (Local Time) from KLEB Reporting Station
Overcast Overcast  
Wind Chill: 20°   Ceiling: 2200
Heat Index: 29°   Visibility: 10mi
Dew Point: 19°   Wind: 9mph
Humidity: 67%   Direction: 330°NNW
Pressure: 29.99"   Gusts: NA
Location:  43.45°N, 71.91°W
Report Text: KLEB 191653Z 33008KT 10SM OVC022 M02/M07 A2999 RMK AO2 SLP164 T10171072
Loading
Personal Weather Stations






























Interactive Weather Map New forecast layout! Learn more

10-Day Weather Forecast

Advertisements
Track Severe Weather on mobile